Aviation Digital Data Service (ADDS)

Output produced by METARs form (1125 UTC 19 June 2019)
found at http://www.aviationweather.gov/metar/data/
 
TLPC 191100Z 1912/2012 08010G22KT 9999 SCT026 
     TEMPO 1912/2006 5000 SHRA FEW014CB BKN018 
     PROB30 
     TEMPO 1916/1920 TSRA
       
TLPL 191100Z 1912/2012 08020KT 9999 SCT026 
     TEMPO 1912/2006 5000 SHRA FEW014CB BKN018 
     PROB30 
     TEMPO 1916/1920 TSRA